Time;durP1;ratioP1;P1;durP2;ratioP2;P2;SDS_P1;SDS_P2;PMS_P1;PMS_P2;Temp;Humidity;BMP_temperature;BMP_pressure;BME280_temperature;BME280_humidity;BME280_pressure;Samples;Min_cycle;Max_cycle;Signal;HPM_P1;HPM_P2
2023/03/01 00:01:27;;;;;;;150.73;49.60;;;;;;;-36.61;100.00;95760.31;5087634;23;20294;-58
2023/03/01 00:03:54;;;;;;;147.77;49.40;;;;;;;-36.63;100.00;95757.00;5060659;23;20210;-56
2023/03/01 00:06:21;;;;;;;141.57;48.17;;;;;;;-36.67;100.00;95753.69;5070211;22;20278;-60
2023/03/01 00:08:48;;;;;;;134.10;47.43;;;;;;;-36.64;100.00;95757.84;5101413;22;21438;-55
2023/03/01 00:11:23;;;;;;;136.70;46.73;;;;;;;-36.57;100.00;95749.72;5079822;23;20285;-58
2023/03/01 00:13:53;;;;;;;137.50;47.33;;;;;;;-36.57;100.00;95754.63;5087632;22;20810;-58
2023/03/01 00:16:23;;;;;;;150.77;47.80;;;;;;;-36.67;100.00;95751.25;5075368;22;20265;-55
2023/03/01 00:18:50;;;;;;;131.63;46.53;;;;;;;-36.72;100.00;95745.44;5066363;23;20211;-56
2023/03/01 00:21:17;;;;;;;137.73;48.13;;;;;;;-36.70;100.00;95743.00;5071939;22;20217;-56
2023/03/01 00:23:43;;;;;;;148.30;48.80;;;;;;;-36.77;100.00;95737.16;5089442;22;22360;-57
2023/03/01 00:26:12;;;;;;;128.30;45.93;;;;;;;-36.77;100.00;95742.94;5087268;23;25522;-58
2023/03/01 00:28:39;;;;;;;138.63;48.93;;;;;;;-36.72;100.00;95738.06;5065308;22;21900;-55
2023/03/01 00:31:08;;;;;;;144.90;47.93;;;;;;;-36.65;100.00;95734.88;5072978;22;20209;-55
2023/03/01 00:33:34;;;;;;;139.07;48.37;;;;;;;-36.70;100.00;95735.59;5079632;22;20204;-54
2023/03/01 00:36:02;;;;;;;136.07;48.37;;;;;;;-36.71;100.00;95733.97;5067895;22;20210;-59
2023/03/01 00:38:29;;;;;;;138.03;48.40;;;;;;;-36.70;100.00;95738.91;5070769;23;20485;-54
2023/03/01 00:41:03;;;;;;;137.70;49.67;;;;;;;-36.80;100.00;95735.50;5084869;23;21134;-57
2023/03/01 00:43:30;;;;;;;125.30;46.90;;;;;;;-36.85;100.00;95734.63;5079935;22;20209;-55
2023/03/01 00:46:01;;;;;;;142.67;49.67;;;;;;;-36.80;100.00;95739.59;5082936;23;20703;-56
2023/03/01 00:48:27;;;;;;;147.67;50.03;;;;;;;-36.78;100.00;95731.44;5086892;23;20203;-56
2023/03/01 00:50:54;;;;;;;131.90;46.37;;;;;;;-36.83;100.00;95737.09;5068231;23;22885;-57
2023/03/01 00:53:21;;;;;;;133.63;47.43;;;;;;;-36.83;100.00;95739.56;5074324;23;21779;-58
2023/03/01 00:55:47;;;;;;;137.63;49.97;;;;;;;-36.70;100.00;95735.59;5078774;22;20333;-57
2023/03/01 00:58:14;;;;;;;143.43;48.10;;;;;;;-36.65;100.00;95729.09;5095731;23;20966;-55
2023/03/01 01:00:40;;;;;;;133.27;46.50;;;;;;;-36.74;100.00;95736.41;5075749;22;20204;-60
2023/03/01 01:03:07;;;;;;;129.20;47.50;;;;;;;-36.74;100.00;95726.56;5062019;23;23276;-58
2023/03/01 01:05:34;;;;;;;135.33;46.50;;;;;;;-36.72;100.00;95728.22;5081940;22;21555;-56
2023/03/01 01:08:01;;;;;;;137.30;46.70;;;;;;;-36.77;100.00;95723.25;5056927;23;20329;-55
2023/03/01 01:10:27;;;;;;;127.67;45.73;;;;;;;-36.75;100.00;95715.88;5091455;22;20199;-58
2023/03/01 01:12:54;;;;;;;125.27;46.00;;;;;;;-36.86;100.00;95708.41;5072746;23;20256;-55
2023/03/01 01:15:21;;;;;;;122.93;46.70;;;;;;;-36.86;100.00;95710.03;5066736;22;20720;-60
2023/03/01 01:17:47;;;;;;;126.93;45.77;;;;;;;-36.86;100.00;95701.03;5083454;23;20210;-57
2023/03/01 01:20:14;;;;;;;127.80;45.30;;;;;;;-36.85;100.00;95704.28;5107515;22;20328;-60
2023/03/01 01:22:40;;;;;;;128.33;47.77;;;;;;;-36.90;100.00;95701.78;5080630;22;20443;-57
2023/03/01 01:25:08;;;;;;;132.03;45.43;;;;;;;-36.84;100.00;95701.88;5074620;22;20721;-55
2023/03/01 01:27:34;;;;;;;129.53;45.63;;;;;;;-36.92;100.00;95700.13;5088692;23;21212;-58
2023/03/01 01:30:01;;;;;;;123.97;45.30;;;;;;;-36.90;100.00;95701.78;5070369;23;21247;-59
2023/03/01 01:32:28;;;;;;;125.00;46.30;;;;;;;-36.89;100.00;95693.59;5063246;22;21122;-59
2023/03/01 01:34:54;;;;;;;131.90;47.00;;;;;;;-36.91;100.00;95690.31;5066357;22;22830;-59
2023/03/01 01:37:21;;;;;;;121.83;43.17;;;;;;;-36.79;100.00;95697.81;5068184;23;20271;-60
2023/03/01 01:39:48;;;;;;;127.17;44.80;;;;;;;-36.76;100.00;95695.38;5082733;22;20204;-55
2023/03/01 01:42:18;;;;;;;128.07;45.40;;;;;;;-36.88;100.00;95689.53;5080926;23;20211;-61
2023/03/01 01:44:47;;;;;;;122.30;44.73;;;;;;;-36.93;100.00;95691.06;5072312;23;24248;-58
2023/03/01 01:47:18;;;;;;;124.80;45.60;;;;;;;-36.91;100.00;95694.38;5078747;22;20621;-58
2023/03/01 01:49:51;;;;;;;116.57;45.10;;;;;;;-36.82;100.00;95695.31;5094131;23;21005;-58
2023/03/01 01:52:22;;;;;;;119.20;43.97;;;;;;;-36.92;100.00;95686.19;5077108;23;20278;-56
2023/03/01 01:54:58;;;;;;;120.63;42.77;;;;;;;-36.89;100.00;95673.91;5066673;23;20260;-57
2023/03/01 01:57:46;;;;;;;124.80;44.23;;;;;;;-36.93;100.00;95673.88;5056872;22;20552;-56
2023/03/01 02:00:16;;;;;;;124.50;44.10;;;;;;;-36.94;100.00;95677.97;5065679;22;20374;-56
2023/03/01 02:02:45;;;;;;;131.37;44.90;;;;;;;-36.88;100.00;95679.69;5083759;22;20603;-60
2023/03/01 02:05:36;;;;;;;130.83;45.47;;;;;;;-37.00;100.00;95676.28;5068105;22;20216;-60
2023/03/01 02:08:03;;;;;;;120.33;44.50;;;;;;;-36.93;100.00;95672.25;5072667;23;20644;-59
2023/03/01 02:10:33;;;;;;;127.73;44.10;;;;;;;-36.97;100.00;95666.47;5065805;23;20267;-58
2023/03/01 02:13:00;;;;;;;133.77;44.10;;;;;;;-36.92;100.00;95671.44;5077439;23;25469;-59
2023/03/01 02:15:27;;;;;;;128.53;43.87;;;;;;;-36.94;100.00;95665.66;5093490;22;20210;-57
2023/03/01 02:17:54;;;;;;;127.53;43.77;;;;;;;-37.02;100.00;95667.22;5073396;23;20427;-57
2023/03/01 02:20:39;;;;;;;116.03;43.93;;;;;;;-37.06;100.00;95675.41;5085799;23;20222;-57
2023/03/01 02:23:07;;;;;;;125.80;44.30;;;;;;;-37.08;100.00;95672.09;5074837;22;20208;-58
2023/03/01 02:25:56;;;;;;;128.73;42.87;;;;;;;-37.02;100.00;95672.97;5063512;23;22890;-60
2023/03/01 02:28:38;;;;;;;128.77;45.23;;;;;;;-37.02;100.00;95667.22;5074301;23;21813;-58
2023/03/01 02:33:51;;;;;;;122.77;44.13;;;;;;;-37.09;100.00;95656.53;5061945;23;20275;-58
2023/03/01 02:36:22;;;;;;;122.83;44.40;;;;;;;-37.05;100.00;95657.38;5088056;22;22192;-58
2023/03/01 02:38:52;;;;;;;126.67;44.30;;;;;;;-37.05;100.00;95657.38;5064666;23;20799;-58
2023/03/01 02:41:19;;;;;;;124.17;44.20;;;;;;;-37.12;100.00;95651.59;5069301;22;20271;-58
2023/03/01 02:43:46;;;;;;;118.23;43.40;;;;;;;-37.02;100.00;95648.38;5065613;23;22377;-58
2023/03/01 02:46:24;;;;;;;125.27;44.53;;;;;;;-37.07;100.00;95654.09;5081227;22;20218;-58
2023/03/01 02:48:53;;;;;;;126.07;43.60;;;;;;;-37.08;100.00;95649.97;5069316;23;20407;-60
2023/03/01 02:51:47;;;;;;;122.60;42.57;;;;;;;-37.08;100.00;95645.88;5075436;22;20422;-56
2023/03/01 02:54:16;;;;;;;131.73;44.70;;;;;;;-37.05;100.00;95655.75;5089861;22;20207;-58
2023/03/01 02:56:44;;;;;;;120.80;45.17;;;;;;;-37.15;100.00;95656.44;5080623;22;20202;-59
2023/03/01 02:59:10;;;;;;;127.43;45.60;;;;;;;-37.14;100.00;95653.19;5045605;23;20300;-58
2023/03/01 03:01:37;;;;;;;116.87;44.93;;;;;;;-37.17;100.00;95649.84;5055752;22;20209;-58
2023/03/01 03:04:10;;;;;;;118.37;41.97;;;;;;;-37.19;100.00;95637.56;5071682;23;20258;-57
2023/03/01 03:06:36;;;;;;;118.53;43.63;;;;;;;-37.13;100.00;95636.81;5054343;23;21742;-60
2023/03/01 03:09:04;;;;;;;121.43;44.83;;;;;;;-37.12;100.00;95629.47;5047876;23;20311;-57
2023/03/01 03:11:32;;;;;;;123.57;44.73;;;;;;;-37.19;100.00;95626.09;5066589;23;26221;-56
2023/03/01 03:13:58;;;;;;;123.17;44.13;;;;;;;-37.11;100.00;95632.75;5094238;23;20205;-59
2023/03/01 03:16:25;;;;;;;121.27;43.00;;;;;;;-37.11;100.00;95632.75;5053853;23;20219;-58
2023/03/01 03:18:52;;;;;;;130.80;43.00;;;;;;;-37.13;100.00;95624.53;5050385;23;20200;-59
2023/03/01 03:21:18;;;;;;;126.07;43.37;;;;;;;-37.08;100.00;95615.56;5085183;23;21643;-58
2023/03/01 03:23:45;;;;;;;130.30;44.90;;;;;;;-37.24;100.00;95615.41;5071033;23;20251;-56
2023/03/01 03:26:13;;;;;;;132.57;44.67;;;;;;;-37.17;100.00;95608.09;5075618;23;20214;-56
2023/03/01 03:28:39;;;;;;;125.67;44.27;;;;;;;-37.25;100.00;95611.28;5083002;23;20199;-57
2023/03/01 03:31:07;;;;;;;126.53;44.10;;;;;;;-37.19;100.00;95610.53;5072283;23;20211;-57
2023/03/01 03:33:34;;;;;;;127.57;43.73;;;;;;;-37.21;100.00;95608.06;5047088;23;20238;-56
2023/03/01 03:36:00;;;;;;;127.13;43.67;;;;;;;-37.25;100.00;95600.63;5071410;23;20335;-61
2023/03/01 03:38:27;;;;;;;136.93;45.50;;;;;;;-37.22;100.00;95599.03;5081941;23;20200;-55
2023/03/01 03:41:06;;;;;;;118.37;42.80;;;;;;;-37.20;100.00;95594.13;5071346;23;20334;-60
2023/03/01 03:43:34;;;;;;;125.47;45.00;;;;;;;-37.18;100.00;95602.34;5060877;23;20207;-59
2023/03/01 03:46:05;;;;;;;120.57;44.53;;;;;;;-37.22;100.00;95611.31;5068667;23;20210;-56
2023/03/01 03:48:37;;;;;;;126.73;45.03;;;;;;;-37.10;100.00;95614.72;5075431;23;20221;-58
2023/03/01 03:51:05;;;;;;;120.07;43.43;;;;;;;-37.11;100.00;95618.00;5076467;23;20274;-58
2023/03/01 03:53:32;;;;;;;120.30;42.60;;;;;;;-37.15;100.00;95604.84;5086168;23;20207;-57
2023/03/01 03:55:59;;;;;;;129.40;45.07;;;;;;;-37.20;100.00;95599.88;5085937;23;20621;-62
2023/03/01 03:58:26;;;;;;;127.83;44.00;;;;;;;-37.21;100.00;95595.78;5095037;23;21756;-57
2023/03/01 04:00:55;;;;;;;127.87;44.07;;;;;;;-37.14;100.00;95593.38;5077776;23;21082;-59
2023/03/01 04:03:24;;;;;;;113.03;41.47;;;;;;;-37.17;100.00;95599.06;5077447;23;20201;-59
2023/03/01 04:05:51;;;;;;;117.90;43.73;;;;;;;-37.03;100.00;95592.66;5071708;23;25399;-58
2023/03/01 04:08:20;;;;;;;121.47;43.17;;;;;;;-36.98;100.00;95595.16;5085447;23;22875;-57
2023/03/01 04:10:49;;;;;;;123.57;42.73;;;;;;;-37.08;100.00;95588.53;5077394;23;20199;-57
2023/03/01 04:13:19;;;;;;;116.07;43.47;;;;;;;-37.01;100.00;95587.75;5091768;23;20210;-54
2023/03/01 04:15:48;;;;;;;116.07;42.07;;;;;;;-37.12;100.00;95584.38;5072130;23;21222;-58
2023/03/01 04:18:16;;;;;;;114.80;42.03;;;;;;;-37.19;100.00;95581.88;5085520;23;20497;-59
2023/03/01 04:20:44;;;;;;;118.80;40.93;;;;;;;-37.15;100.00;95584.34;5057409;23;20768;-61
2023/03/01 04:23:18;;;;;;;120.53;43.33;;;;;;;-37.18;100.00;95590.06;5059213;23;20595;-57
2023/03/01 04:25:53;;;;;;;121.67;43.17;;;;;;;-37.19;100.00;95591.72;5083977;23;20213;-58
2023/03/01 04:28:28;;;;;;;122.00;45.17;;;;;;;-37.15;100.00;95594.19;5079795;23;20249;-59
2023/03/01 04:30:57;;;;;;;126.10;44.03;;;;;;;-37.17;100.00;95585.97;5083668;23;20217;-58
2023/03/01 04:33:25;;;;;;;116.57;41.20;;;;;;;-37.06;100.00;95585.28;5084316;23;25161;-57
2023/03/01 04:35:51;;;;;;;125.83;44.50;;;;;;;-37.03;100.00;95586.91;5078159;23;20214;-57
2023/03/01 04:38:19;;;;;;;123.47;42.73;;;;;;;-37.13;100.00;95575.38;5085453;23;22739;-57
2023/03/01 04:40:45;;;;;;;122.37;44.53;;;;;;;-37.16;100.00;95570.44;5076784;23;20324;-57
2023/03/01 04:43:15;;;;;;;114.43;41.97;;;;;;;-37.17;100.00;95566.31;5093214;23;20218;-60
2023/03/01 04:45:42;;;;;;;122.87;44.40;;;;;;;-37.17;100.00;95568.75;5074011;23;21738;-57
2023/03/01 04:48:08;;;;;;;119.97;43.13;;;;;;;-37.12;100.00;95564.72;5078848;23;20203;-58
2023/03/01 04:50:35;;;;;;;131.57;44.70;;;;;;;-37.17;100.00;95561.41;5080561;23;20203;-60
2023/03/01 04:53:02;;;;;;;119.30;44.17;;;;;;;-37.19;100.00;95563.84;5073549;23;20331;-62
2023/03/01 04:55:29;;;;;;;126.20;43.43;;;;;;;-37.15;100.00;95559.78;5080098;23;20211;-58
2023/03/01 04:57:56;;;;;;;126.50;43.90;;;;;;;-37.19;100.00;95551.56;5076455;23;20404;-60
2023/03/01 05:00:23;;;;;;;118.67;42.97;;;;;;;-37.24;100.00;95540.84;5074166;23;20241;-60
2023/03/01 05:02:54;;;;;;;132.83;44.20;;;;;;;-37.22;100.00;95552.34;5074785;23;20200;-59
2023/03/01 05:05:28;;;;;;;123.53;43.70;;;;;;;-37.22;100.00;95549.88;5071517;23;25225;-57
2023/03/01 05:07:56;;;;;;;120.37;42.47;;;;;;;-37.19;100.00;95552.38;5062508;23;20288;-56
2023/03/01 05:10:23;;;;;;;123.00;43.00;;;;;;;-37.19;100.00;95547.47;5072099;23;20207;-57
2023/03/01 05:12:52;;;;;;;132.40;44.07;;;;;;;-37.18;100.00;95555.66;5059567;23;20218;-59
2023/03/01 05:15:18;;;;;;;126.17;43.33;;;;;;;-37.22;100.00;95554.78;5066109;23;20210;-59
2023/03/01 05:17:46;;;;;;;119.07;43.00;;;;;;;-37.20;100.00;95552.34;5063715;23;20207;-57
2023/03/01 05:20:12;;;;;;;123.50;42.03;;;;;;;-37.16;100.00;95560.59;5076667;23;20203;-59
2023/03/01 05:22:39;;;;;;;119.97;42.50;;;;;;;-37.24;100.00;95561.34;5051154;23;20226;-55
2023/03/01 05:25:07;;;;;;;132.70;43.80;;;;;;;-37.23;100.00;95565.44;5069270;23;20210;-61
2023/03/01 05:27:34;;;;;;;115.60;42.20;;;;;;;-37.13;100.00;95560.63;5058369;23;22383;-58
2023/03/01 05:30:13;;;;;;;117.70;41.10;;;;;;;-37.12;100.00;95568.03;5071681;23;20560;-59
2023/03/01 05:32:46;;;;;;;106.10;41.23;;;;;;;-37.16;100.00;95575.34;5057056;23;20288;-57
2023/03/01 05:35:15;;;;;;;116.83;41.17;;;;;;;-37.05;100.00;95583.63;5081127;23;20215;-59
2023/03/01 05:37:47;;;;;;;115.03;41.77;;;;;;;-37.04;100.00;95587.72;5067509;23;20208;-57
2023/03/01 05:40:19;;;;;;;113.33;40.93;;;;;;;-37.08;100.00;95583.59;5082010;23;20885;-59
2023/03/01 05:42:48;;;;;;;112.23;41.27;;;;;;;-37.04;100.00;95590.19;5074663;23;23715;-59
2023/03/01 05:45:16;;;;;;;109.30;39.97;;;;;;;-36.99;100.00;95589.41;5101150;23;20212;-58
2023/03/01 05:47:44;;;;;;;106.97;39.87;;;;;;;-36.97;100.00;95595.16;5094628;23;20369;-57
2023/03/01 05:50:13;;;;;;;116.87;39.70;;;;;;;-37.02;100.00;95591.03;5097543;23;22334;-61
2023/03/01 05:52:40;;;;;;;107.90;40.63;;;;;;;-36.99;100.00;95599.25;5077166;23;20273;-59
2023/03/01 05:55:07;;;;;;;110.33;39.63;;;;;;;-36.92;100.00;95594.41;5107288;23;23734;-61
2023/03/01 05:57:34;;;;;;;111.20;38.90;;;;;;;-36.88;100.00;95596.91;5066723;23;21722;-60
2023/03/01 06:00:01;;;;;;;111.97;39.97;;;;;;;-36.78;100.00;95598.63;5091421;23;20210;-60
2023/03/01 06:02:27;;;;;;;119.87;40.03;;;;;;;-36.81;100.00;95600.25;5064970;23;20251;-59
2023/03/01 06:04:54;;;;;;;105.60;37.53;;;;;;;-36.68;100.00;95594.63;5058071;23;21048;-61
2023/03/01 06:07:21;;;;;;;107.90;38.43;;;;;;;-36.68;100.00;95598.72;5082767;22;20211;-58
2023/03/01 06:09:47;;;;;;;111.67;40.93;;;;;;;-36.67;100.00;95595.47;5099712;22;20390;-62
2023/03/01 06:12:14;;;;;;;110.23;39.03;;;;;;;-36.64;100.00;95600.41;5047869;23;22336;-63
2023/03/01 06:14:41;;;;;;;116.90;39.17;;;;;;;-36.56;100.00;95593.88;5059608;23;20208;-62
2023/03/01 06:17:07;;;;;;;114.53;39.77;;;;;;;-36.53;100.00;95598.84;5084677;23;21589;-66
2023/03/01 06:19:34;;;;;;;120.20;42.10;;;;;;;-36.49;100.00;95588.19;5063162;23;21359;-64
2023/03/01 06:22:00;;;;;;;110.07;39.77;;;;;;;-36.42;100.00;95591.53;5078530;23;20204;-65
2023/03/01 06:24:28;;;;;;;122.77;42.30;;;;;;;-36.46;100.00;95590.72;5095304;23;20408;-65
2023/03/01 06:26:56;;;;;;;114.23;38.97;;;;;;;-36.37;100.00;95593.25;5062871;23;20212;-64
2023/03/01 06:29:22;;;;;;;120.67;43.83;;;;;;;-36.35;100.00;95581.78;5051723;23;20256;-63
2023/03/01 06:31:49;;;;;;;124.10;40.47;;;;;;;-36.22;100.00;95585.16;5061475;23;20201;-60
2023/03/01 06:34:16;;;;;;;109.97;38.90;;;;;;;-36.03;100.00;95595.09;5076653;23;20389;-64
2023/03/01 06:36:43;;;;;;;117.27;38.83;;;;;;;-35.85;99.45;95594.41;5059087;23;20593;-64
2023/03/01 06:39:09;;;;;;;110.27;38.07;;;;;;;-35.77;98.63;95598.56;5078136;23;20247;-62
2023/03/01 06:41:35;;;;;;;102.33;36.40;;;;;;;-35.92;98.09;95594.38;5044319;23;20375;-62
2023/03/01 06:44:02;;;;;;;104.07;38.40;;;;;;;-35.89;98.66;95596.84;5077084;23;22330;-64
2023/03/01 06:46:29;;;;;;;102.80;36.03;;;;;;;-35.80;97.93;95592.78;5101957;23;20274;-62
2023/03/01 06:48:56;;;;;;;103.10;36.83;;;;;;;-35.73;98.14;95590.38;5075274;23;20212;-61
2023/03/01 06:51:22;;;;;;;102.20;37.10;;;;;;;-35.62;97.44;95595.38;5059955;23;20203;-60
2023/03/01 06:53:49;;;;;;;103.03;35.33;;;;;;;-35.63;97.47;95596.16;5068562;22;20210;-59
2023/03/01 06:56:15;;;;;;;97.77;36.40;;;;;;;-35.55;97.37;95594.56;5083790;23;20237;-62
2023/03/01 06:58:42;;;;;;;95.37;36.17;;;;;;;-35.50;96.66;95595.41;5074578;23;20211;-58
2023/03/01 07:01:09;;;;;;;94.47;34.50;;;;;;;-35.47;96.72;95592.94;5079320;23;21716;-61
2023/03/01 07:03:35;;;;;;;90.97;34.43;;;;;;;-35.48;97.00;95600.34;5040886;23;20357;-61
2023/03/01 07:06:02;;;;;;;94.53;34.37;;;;;;;-35.24;96.59;95604.56;5067585;23;20669;-60
2023/03/01 07:08:29;;;;;;;95.23;34.20;;;;;;;-35.28;95.82;95611.09;5091465;23;23666;-59
2023/03/01 07:11:01;;;;;;;95.00;33.70;;;;;;;-35.19;95.53;95598.00;5072070;23;21776;-59
2023/03/01 07:13:28;;;;;;;86.97;31.67;;;;;;;-35.04;94.68;95602.97;5065888;23;20204;-62
2023/03/01 07:15:56;;;;;;;90.23;32.73;;;;;;;-35.06;93.80;95599.69;5052136;23;21606;-61
2023/03/01 07:18:23;;;;;;;85.20;32.13;;;;;;;-35.08;93.14;95605.44;5065945;23;20979;-64
2023/03/01 07:20:49;;;;;;;85.67;30.87;;;;;;;-35.04;93.14;95599.66;5114811;23;20379;-60
2023/03/01 07:23:16;;;;;;;91.83;33.17;;;;;;;-34.97;93.19;95595.56;5098041;23;20939;-64
2023/03/01 07:25:43;;;;;;;84.70;32.57;;;;;;;-34.90;92.51;95589.84;5084170;22;21353;-60
2023/03/01 07:28:09;;;;;;;92.87;33.23;;;;;;;-34.84;92.58;95584.94;5051616;23;20213;-60
2023/03/01 07:30:36;;;;;;;86.87;30.43;;;;;;;-34.60;91.79;95594.03;5062189;23;20274;-61
2023/03/01 07:33:02;;;;;;;96.20;33.10;;;;;;;-34.40;91.29;95584.16;5089304;23;20208;-61
2023/03/01 07:35:29;;;;;;;96.60;32.77;;;;;;;-34.33;91.17;95585.00;5061182;23;20610;-60
2023/03/01 07:37:56;;;;;;;82.23;30.67;;;;;;;-34.40;91.42;95581.69;5047617;23;25500;-57
2023/03/01 07:40:22;;;;;;;84.37;31.23;;;;;;;-34.28;90.84;95576.75;5053648;23;20199;-61
2023/03/01 07:42:49;;;;;;;85.60;31.87;;;;;;;-34.20;90.95;95580.03;5077596;23;20199;-58
2023/03/01 07:45:15;;;;;;;80.87;31.73;;;;;;;-34.17;90.15;95582.53;5063888;23;20944;-60
2023/03/01 07:47:42;;;;;;;77.80;29.77;;;;;;;-34.18;89.93;95593.22;5030340;23;20379;-63
2023/03/01 07:50:09;;;;;;;78.07;30.57;;;;;;;-33.91;88.76;95591.56;5127454;23;21056;-62
2023/03/01 07:52:36;;;;;;;75.10;29.43;;;;;;;-33.71;86.92;95594.00;5082559;23;20199;-62
2023/03/01 07:55:03;;;;;;;76.00;29.50;;;;;;;-33.17;85.46;95586.41;5094264;23;20242;-60
2023/03/01 07:57:30;;;;;;;78.63;29.27;;;;;;;-31.97;80.65;95596.47;5108706;22;20703;-61
2023/03/01 07:59:57;;;;;;;62.90;25.97;;;;;;;-28.76;68.48;95604.44;5189999;23;25021;-63
2023/03/01 08:02:23;;;;;;;60.17;25.97;;;;;;;-27.65;59.17;95617.03;5108868;23;21155;-61
2023/03/01 08:04:50;;;;;;;55.23;23.40;;;;;;;-26.39;52.83;95627.13;5103931;23;20777;-61
2023/03/01 08:07:17;;;;;;;61.27;23.73;;;;;;;-26.17;49.25;95637.34;5141527;23;21040;-62
2023/03/01 08:09:44;;;;;;;53.23;22.30;;;;;;;-24.41;44.71;95630.94;5099397;23;20204;-60
2023/03/01 08:12:10;;;;;;;46.93;22.87;;;;;;;-21.60;39.31;95649.91;5115058;23;20412;-60
2023/03/01 08:14:37;;;;;;;59.33;24.67;;;;;;;-20.67;34.32;95654.00;5162708;23;21785;-62
2023/03/01 08:17:04;;;;;;;54.77;23.87;;;;;;;-20.18;33.44;95656.63;5161420;23;20215;-60
2023/03/01 08:19:31;;;;;;;55.70;23.70;;;;;;;-21.88;35.49;95642.75;5096192;23;20252;-63
2023/03/01 08:21:58;;;;;;;53.30;23.17;;;;;;;-22.33;35.96;95641.38;5113306;23;20209;-61
2023/03/01 08:24:25;;;;;;;50.50;23.13;;;;;;;-20.67;33.28;95646.41;5101929;23;20204;-61
2023/03/01 08:26:52;;;;;;;48.33;23.17;;;;;;;-22.03;35.24;95644.22;5095094;23;20958;-64
2023/03/01 08:29:18;;;;;;;55.90;23.93;;;;;;;-22.77;36.80;95635.66;5067601;23;22118;-60
2023/03/01 08:31:45;;;;;;;51.57;23.63;;;;;;;-22.75;36.42;95632.19;5063726;23;20208;-63
2023/03/01 08:34:15;;;;;;;46.83;22.23;;;;;;;-22.98;37.40;95619.75;5132678;23;21541;-63
2023/03/01 08:36:46;;;;;;;49.63;23.17;;;;;;;-21.19;35.40;95631.22;5192962;23;20505;-61
2023/03/01 08:39:15;;;;;;;52.67;23.03;;;;;;;-21.50;34.92;95627.63;5132628;23;20206;-62
2023/03/01 08:41:42;;;;;;;50.73;21.13;;;;;;;-21.41;34.01;95629.72;5187551;23;20200;-61
2023/03/01 08:44:13;;;;;;;50.43;22.93;;;;;;;-20.69;33.05;95628.03;5147514;23;20277;-61
2023/03/01 08:46:42;;;;;;;51.43;22.60;;;;;;;-20.17;32.36;95627.13;5232213;23;20298;-62
2023/03/01 08:49:12;;;;;;;50.00;23.27;;;;;;;-20.95;34.58;95625.03;5219637;23;20266;-60
2023/03/01 08:51:39;;;;;;;48.50;23.90;;;;;;;-21.02;33.49;95636.31;5224851;23;20814;-62
2023/03/01 08:54:10;;;;;;;47.10;23.33;;;;;;;-21.84;34.60;95633.34;5193014;23;20848;-62
2023/03/01 08:56:38;;;;;;;47.97;21.90;;;;;;;-21.39;34.38;95635.50;5126099;23;21818;-63
2023/03/01 08:59:06;;;;;;;50.90;23.00;;;;;;;-22.84;36.48;95630.06;5086076;23;20200;-62
2023/03/01 09:01:33;;;;;;;52.73;24.53;;;;;;;-21.98;35.19;95631.44;5123107;23;20379;-62
2023/03/01 09:04:00;;;;;;;52.30;23.77;;;;;;;-22.20;36.40;95624.81;5195233;23;20257;-61
2023/03/01 09:06:27;;;;;;;57.23;25.50;;;;;;;-21.73;35.20;95629.47;5140845;23;21000;-61
2023/03/01 09:08:58;;;;;;;52.87;22.73;;;;;;;-23.35;37.97;95619.50;5476557;23;20638;-59
2023/03/01 09:11:28;;;;;;;54.10;23.10;;;;;;;-25.01;41.64;95607.88;5437726;23;20934;-59
2023/03/01 09:13:57;;;;;;;54.30;23.07;;;;;;;-25.71;43.92;95608.44;5508301;23;20726;-60
2023/03/01 09:16:24;;;;;;;48.30;22.23;;;;;;;-26.73;47.64;95604.72;5508707;22;20263;-61
2023/03/01 09:18:54;;;;;;;50.33;21.73;;;;;;;-26.57;47.94;95605.94;5437130;23;20216;-63
2023/03/01 09:21:26;;;;;;;50.80;21.53;;;;;;;-26.55;48.20;95599.22;5148089;23;22512;-62
2023/03/01 09:24:15;;;;;;;48.30;21.40;;;;;;;-27.64;51.84;95581.22;5093975;23;20257;-61
2023/03/01 09:26:42;;;;;;;48.20;20.33;;;;;;;-28.14;54.76;95576.53;5120172;22;20240;-61
2023/03/01 09:29:09;;;;;;;47.50;20.43;;;;;;;-28.30;55.80;95573.56;5139206;23;20297;-62
2023/03/01 09:31:36;;;;;;;51.83;21.10;;;;;;;-28.29;57.89;95570.22;5083650;23;21213;-62
2023/03/01 09:34:03;;;;;;;61.10;25.70;;;;;;;-28.10;56.59;95570.63;5073429;23;21696;-60
2023/03/01 09:36:30;;;;;;;47.63;21.00;;;;;;;-28.16;56.72;95571.59;5075218;23;20203;-61
2023/03/01 09:38:58;;;;;;;51.60;22.63;;;;;;;-28.13;56.48;95564.88;5073264;23;20276;-63
2023/03/01 09:41:49;;;;;;;54.13;21.10;;;;;;;-28.38;57.93;95557.94;5053859;23;21377;-58
2023/03/01 09:44:21;;;;;;;50.90;21.20;;;;;;;-28.16;57.37;95559.13;5127730;23;20483;-60
2023/03/01 09:46:48;;;;;;;53.57;20.70;;;;;;;-28.66;60.41;95561.03;5087453;23;21510;-60
2023/03/01 09:49:18;;;;;;;45.03;20.40;;;;;;;-28.47;59.30;95561.47;5078475;23;20611;-64
2023/03/01 09:51:58;;;;;;;44.43;19.87;;;;;;;-29.18;62.83;95551.28;5117279;23;20207;-62
2023/03/01 09:54:25;;;;;;;45.47;19.03;;;;;;;-29.29;63.97;95544.81;5061788;23;20214;-60
2023/03/01 09:57:11;;;;;;;42.27;18.70;;;;;;;-28.99;63.41;95544.25;5083228;23;20298;-61
2023/03/01 10:00:07;;;;;;;45.47;19.30;;;;;;;-29.17;64.53;95538.78;5090810;23;20206;-62
2023/03/01 10:02:56;;;;;;;40.63;17.70;;;;;;;-29.22;64.97;95535.56;5060890;23;20219;-60
2023/03/01 10:05:36;;;;;;;39.60;17.03;;;;;;;-29.41;66.23;95532.59;5071372;23;22864;-62
2023/03/01 10:08:38;;;;;;;39.23;16.47;;;;;;;-29.59;66.25;95518.00;5090141;23;20265;-61
2023/03/01 10:11:17;;;;;;;39.50;17.27;;;;;;;-28.79;64.68;95519.75;5022395;23;20211;-62
2023/03/01 10:13:52;;;;;;;52.57;17.90;;;;;;;-28.70;63.86;95519.56;5017955;23;20209;-61
2023/03/01 10:16:52;;;;;;;35.87;16.10;;;;;;;-28.85;64.52;95517.41;5073862;23;21796;-60
2023/03/01 10:19:31;;;;;;;40.77;16.37;;;;;;;-29.07;65.25;95509.56;5032743;23;20205;-61
2023/03/01 10:22:23;;;;;;;45.37;16.97;;;;;;;-29.32;66.15;95500.06;5047997;23;20208;-61
2023/03/01 10:24:51;;;;;;;41.33;16.13;;;;;;;-29.08;65.83;95498.78;5084975;23;21049;-63
2023/03/01 10:27:38;;;;;;;37.73;15.90;;;;;;;-29.05;65.97;95492.88;5083132;23;20217;-65
2023/03/01 10:30:17;;;;;;;36.73;15.20;;;;;;;-29.29;66.21;95495.03;5080770;23;21760;-64
2023/03/01 10:32:44;;;;;;;33.13;14.90;;;;;;;-29.08;65.44;95486.31;5046070;23;20204;-64
2023/03/01 10:35:22;;;;;;;31.67;14.83;;;;;;;-29.33;66.83;95500.94;5074689;23;20204;-61
2023/03/01 10:38:04;;;;;;;33.37;14.80;;;;;;;-29.36;67.69;95500.16;5069682;23;20307;-64
2023/03/01 10:40:32;;;;;;;35.73;14.50;;;;;;;-28.94;66.34;95505.94;5060709;23;20211;-63
2023/03/01 10:43:01;;;;;;;27.50;13.50;;;;;;;-28.64;64.91;95504.50;5048801;23;20205;-60
2023/03/01 10:45:34;;;;;;;29.47;12.97;;;;;;;-28.82;63.44;95500.72;5042926;23;21715;-62
2023/03/01 10:48:14;;;;;;;36.60;12.87;;;;;;;-28.57;64.21;95505.19;5037059;23;20631;-64
2023/03/01 10:50:46;;;;;;;31.00;13.90;;;;;;;-28.49;62.76;95497.53;5051365;23;20239;-63
2023/03/01 10:53:30;;;;;;;27.57;12.80;;;;;;;-28.92;63.27;95491.78;5166698;23;20212;-60
2023/03/01 10:56:05;;;;;;;30.80;13.00;;;;;;;-29.15;65.41;95494.75;5075810;23;22186;-62
2023/03/01 10:58:34;;;;;;;31.13;13.07;;;;;;;-29.15;66.83;95481.50;5064996;23;21756;-62
2023/03/01 11:01:22;;;;;;;26.37;12.40;;;;;;;-28.99;65.95;95489.47;5053869;23;20228;-63
2023/03/01 11:04:07;;;;;;;33.03;13.23;;;;;;;-29.22;67.75;95486.59;5120520;23;20211;-58
2023/03/01 11:06:35;;;;;;;28.87;12.87;;;;;;;-29.27;68.33;95483.38;5087967;23;21174;-59
2023/03/01 11:09:19;;;;;;;29.63;12.57;;;;;;;-29.31;67.55;95479.28;5051092;23;20256;-60
2023/03/01 11:11:46;;;;;;;29.90;12.80;;;;;;;-29.16;68.40;95480.69;5097276;23;20373;-59
2023/03/01 11:14:18;;;;;;;36.93;12.83;;;;;;;-28.98;67.65;95484.44;5082970;23;20280;-58